Time;durP1;ratioP1;P1;durP2;ratioP2;P2;SDS_P1;SDS_P2;PMS_P1;PMS_P2;Temp;Humidity;BMP_temperature;BMP_pressure;BME280_temperature;BME280_humidity;BME280_pressure;Samples;Min_cycle;Max_cycle;Signal;HPM_P1;HPM_P2
2021/05/31 00:04:23;;;;;;;4.57;3.78;;;19.20;63.70;;;;;;10544283;28;20056;-61
2021/05/31 00:09:24;;;;;;;4.47;3.80;;;19.20;63.80;;;;;;10557756;28;20105;-60
2021/05/31 00:14:26;;;;;;;5.72;4.05;;;19.20;63.80;;;;;;10566486;28;20382;-61
2021/05/31 00:19:27;;;;;;;4.43;4.00;;;19.20;63.70;;;;;;10564748;28;20032;-61
2021/05/31 00:24:28;;;;;;;4.82;3.85;;;19.20;63.70;;;;;;10543657;28;20342;-61
2021/05/31 00:29:29;;;;;;;5.18;4.40;;;19.20;63.70;;;;;;10548852;28;20110;-60
2021/05/31 00:34:29;;;;;;;4.35;3.75;;;19.20;63.70;;;;;;10577712;28;20057;-60
2021/05/31 00:39:31;;;;;;;4.88;4.38;;;19.20;63.70;;;;;;10542833;28;20127;-60
2021/05/31 00:44:32;;;;;;;4.88;3.90;;;19.20;63.60;;;;;;10544021;28;20039;-61
2021/05/31 00:49:38;;;;;;;4.53;3.90;;;19.20;63.70;;;;;;10542295;28;20515;-61
2021/05/31 00:54:39;;;;;;;4.18;3.60;;;19.20;63.60;;;;;;10524286;28;20103;-61
2021/05/31 00:59:39;;;;;;;5.60;4.65;;;19.10;63.60;;;;;;10542321;28;20031;-61
2021/05/31 01:04:40;;;;;;;4.75;3.60;;;19.10;63.70;;;;;;10545077;28;20406;-61
2021/05/31 01:10:16;;;;;;;5.15;3.92;;;19.10;63.60;;;;;;10552885;28;20438;-61
2021/05/31 01:15:30;;;;;;;6.03;4.15;;;19.10;63.60;;;;;;10515988;28;20047;-61
2021/05/31 01:20:53;;;;;;;4.78;4.18;;;19.10;63.60;;;;;;10523868;28;20032;-61
2021/05/31 01:25:58;;;;;;;4.97;4.13;;;19.10;63.50;;;;;;10556802;28;20126;-60
2021/05/31 01:30:59;;;;;;;5.53;4.28;;;19.10;63.50;;;;;;10550894;28;20101;-60
2021/05/31 01:36:01;;;;;;;4.35;3.92;;;19.10;63.50;;;;;;10549315;28;20051;-60
2021/05/31 01:41:03;;;;;;;5.00;4.50;;;19.10;63.50;;;;;;10535980;28;20731;-60
2021/05/31 01:46:05;;;;;;;4.75;3.55;;;19.10;63.40;;;;;;10522404;28;20034;-61
2021/05/31 01:51:07;;;;;;;5.22;4.03;;;19.10;63.40;;;;;;10539961;28;20024;-61
2021/05/31 01:56:08;;;;;;;4.97;3.78;;;19.00;63.30;;;;;;10507926;28;20036;-61
2021/05/31 02:01:10;;;;;;;5.55;4.65;;;19.00;63.30;;;;;;10504710;28;20419;-60
2021/05/31 02:06:11;;;;;;;4.85;3.80;;;19.00;63.30;;;;;;10534900;28;20110;-60
2021/05/31 02:11:27;;;;;;;4.47;3.05;;;19.00;63.30;;;;;;10539465;28;20115;-60
2021/05/31 02:16:46;;;;;;;4.70;3.67;;;19.00;63.30;;;;;;10531540;28;20434;-60
2021/05/31 02:21:50;;;;;;;4.78;4.18;;;19.00;63.30;;;;;;10540884;28;20085;-60
2021/05/31 02:26:53;;;;;;;4.55;3.92;;;19.00;63.30;;;;;;10513241;28;20020;-61
2021/05/31 02:31:54;;;;;;;4.32;3.53;;;19.00;63.40;;;;;;10520907;28;20446;-61
2021/05/31 02:36:55;;;;;;;5.45;4.18;;;19.00;63.40;;;;;;10539102;28;20085;-58
2021/05/31 02:41:56;;;;;;;6.13;4.45;;;19.00;63.30;;;;;;10552909;28;20040;-60
2021/05/31 02:46:56;;;;;;;4.93;3.88;;;19.00;63.30;;;;;;10539026;28;20111;-60
2021/05/31 02:51:57;;;;;;;4.90;4.25;;;19.00;63.20;;;;;;10538479;28;20039;-60
2021/05/31 02:56:58;;;;;;;4.88;3.90;;;19.00;63.30;;;;;;10539346;28;20063;-61
2021/05/31 03:01:58;;;;;;;4.40;3.55;;;19.00;63.30;;;;;;10560842;28;20052;-61
2021/05/31 03:06:59;;;;;;;6.03;4.35;;;18.90;63.20;;;;;;10551921;28;20460;-60
2021/05/31 03:12:00;;;;;;;6.75;4.68;;;18.90;63.20;;;;;;10542080;28;20051;-60
2021/05/31 03:17:01;;;;;;;5.78;4.32;;;18.90;63.20;;;;;;10567368;28;20134;-60
2021/05/31 03:22:02;;;;;;;4.80;4.30;;;18.90;63.20;;;;;;10561307;28;20024;-60
2021/05/31 03:27:03;;;;;;;4.70;3.88;;;18.90;63.20;;;;;;10567001;28;20059;-61
2021/05/31 03:32:04;;;;;;;5.40;4.35;;;18.90;63.20;;;;;;10545474;28;20570;-60
2021/05/31 03:37:05;;;;;;;5.43;4.18;;;18.90;63.20;;;;;;10547620;28;20032;-61
2021/05/31 03:42:07;;;;;;;5.03;4.47;;;18.90;63.20;;;;;;10569813;28;20044;-60
2021/05/31 03:47:10;;;;;;;4.78;4.32;;;18.90;63.20;;;;;;10527633;28;20492;-61
2021/05/31 03:52:10;;;;;;;5.70;4.55;;;18.90;63.20;;;;;;10544683;28;20055;-60
2021/05/31 03:57:11;;;;;;;5.68;4.22;;;18.90;63.20;;;;;;10562413;28;20039;-61
2021/05/31 04:02:11;;;;;;;4.75;4.18;;;18.90;63.20;;;;;;10564288;28;20112;-60
2021/05/31 04:12:35;;;;;;;5.70;4.43;;;18.90;63.20;;;;;;10554199;28;20122;-60
2021/05/31 04:17:36;;;;;;;4.88;4.40;;;18.90;63.20;;;;;;10551669;28;20404;-60
2021/05/31 04:22:36;;;;;;;5.18;4.53;;;18.90;63.20;;;;;;10543456;28;20085;-60
2021/05/31 04:27:37;;;;;;;6.35;4.05;;;18.90;63.20;;;;;;10527979;28;20028;-60
2021/05/31 04:32:38;;;;;;;5.15;4.47;;;18.90;63.20;;;;;;10566589;28;20028;-60
2021/05/31 04:37:39;;;;;;;6.70;4.68;;;18.80;63.10;;;;;;10570083;28;20471;-60
2021/05/31 04:42:40;;;;;;;5.38;4.68;;;18.80;63.10;;;;;;10573713;28;20042;-60
2021/05/31 04:47:41;;;;;;;5.45;4.35;;;18.90;63.40;;;;;;10535693;28;20524;-59
2021/05/31 04:52:41;;;;;;;6.60;5.05;;;18.80;63.20;;;;;;10542427;28;20016;-59
2021/05/31 04:57:43;;;;;;;15.05;5.55;;;18.80;63.60;;;;;;10545538;28;20102;-58
2021/05/31 05:02:44;;;;;;;11.13;5.57;;;18.90;64.50;;;;;;10554627;28;20038;-56
2021/05/31 05:07:45;;;;;;;9.10;6.00;;;18.90;65.50;;;;;;10558940;28;20028;-58
2021/05/31 05:12:49;;;;;;;10.15;5.85;;;19.00;65.30;;;;;;10565655;28;20073;-59
2021/05/31 05:17:50;;;;;;;9.43;5.85;;;19.00;65.40;;;;;;10557244;28;20028;-58
2021/05/31 05:22:51;;;;;;;16.55;6.38;;;19.00;65.90;;;;;;10557306;28;20047;-59
2021/05/31 05:27:53;;;;;;;13.35;6.80;;;19.00;66.10;;;;;;10550513;28;20102;-60
2021/05/31 05:32:59;;;;;;;13.90;6.07;;;19.10;66.00;;;;;;10522725;28;20063;-59
2021/05/31 05:48:28;;;;;;;9.40;5.93;;;19.10;65.70;;;;;;10563254;28;20035;-59
2021/05/31 05:53:29;;;;;;;10.40;5.80;;;19.00;65.70;;;;;;10580445;28;20031;-59
2021/05/31 05:58:30;;;;;;;8.10;5.45;;;19.00;65.60;;;;;;10548153;28;20464;-60
2021/05/31 06:03:31;;;;;;;12.57;5.43;;;19.00;65.60;;;;;;10554086;28;20044;-59
2021/05/31 06:08:32;;;;;;;9.40;5.22;;;19.00;65.40;;;;;;10547430;28;20037;-58
2021/05/31 06:13:32;;;;;;;8.38;5.55;;;19.00;65.60;;;;;;10533516;28;20487;-59
2021/05/31 06:18:33;;;;;;;9.25;5.13;;;19.00;65.70;;;;;;10530188;28;20088;-57
2021/05/31 06:23:34;;;;;;;12.88;5.88;;;18.90;65.20;;;;;;10559158;28;20039;-58
2021/05/31 06:28:35;;;;;;;6.47;4.97;;;18.90;65.50;;;;;;10533459;28;20759;-57
2021/05/31 06:33:35;;;;;;;8.63;5.40;;;18.90;65.40;;;;;;10533553;28;20521;-57
2021/05/31 06:38:37;;;;;;;8.05;5.38;;;18.90;65.10;;;;;;10552367;28;20028;-55
2021/05/31 06:43:38;;;;;;;7.03;5.30;;;18.90;65.00;;;;;;10562565;28;20035;-57
2021/05/31 06:48:39;;;;;;;8.50;4.47;;;18.90;65.00;;;;;;10556767;28;20119;-56
2021/05/31 06:53:39;;;;;;;5.82;4.13;;;18.90;64.90;;;;;;10561041;28;20036;-58
2021/05/31 06:58:40;;;;;;;9.57;4.20;;;18.90;64.80;;;;;;10565285;28;20038;-58
2021/05/31 07:03:42;;;;;;;6.75;4.47;;;18.90;64.90;;;;;;10533464;28;20065;-56
2021/05/31 07:08:42;;;;;;;5.78;4.05;;;18.90;65.00;;;;;;10563553;28;20024;-57
2021/05/31 07:13:45;;;;;;;6.53;3.97;;;19.00;65.10;;;;;;10562636;28;20046;-56
2021/05/31 07:18:47;;;;;;;8.25;5.30;;;19.00;65.10;;;;;;10539123;28;20028;-58
2021/05/31 07:23:48;;;;;;;6.50;5.07;;;19.00;65.10;;;;;;10526201;28;20133;-57
2021/05/31 07:28:48;;;;;;;7.80;4.35;;;19.00;65.10;;;;;;10555072;28;20155;-58
2021/05/31 07:33:49;;;;;;;6.63;4.30;;;19.00;65.10;;;;;;10580820;28;20036;-58
2021/05/31 07:38:50;;;;;;;7.53;4.30;;;19.00;65.10;;;;;;10579867;28;20062;-57
2021/05/31 07:43:51;;;;;;;6.57;3.72;;;19.10;65.10;;;;;;10580194;28;20106;-57
2021/05/31 07:48:53;;;;;;;7.60;4.30;;;19.10;65.00;;;;;;10579906;28;20031;-57
2021/05/31 07:53:56;;;;;;;9.93;4.25;;;19.10;65.00;;;;;;10555948;28;20140;-58
2021/05/31 07:58:57;;;;;;;5.95;4.13;;;19.10;65.10;;;;;;10533773;28;20119;-58
2021/05/31 08:03:58;;;;;;;7.40;4.40;;;19.10;65.10;;;;;;10564431;28;20015;-58
2021/05/31 08:08:58;;;;;;;9.30;5.22;;;19.10;65.10;;;;;;10567267;28;20034;-57
2021/05/31 08:14:00;;;;;;;6.30;4.60;;;19.10;64.90;;;;;;10551320;28;20097;-57
2021/05/31 08:19:01;;;;;;;8.52;5.13;;;19.10;64.90;;;;;;10533333;28;20050;-56
2021/05/31 08:24:01;;;;;;;5.28;4.07;;;19.10;65.00;;;;;;10540859;28;20036;-57
2021/05/31 08:29:02;;;;;;;7.70;5.13;;;19.20;65.10;;;;;;10570886;28;20119;-58
2021/05/31 08:34:03;;;;;;;8.63;4.45;;;19.20;65.10;;;;;;10567408;28;20038;-58
2021/05/31 08:39:06;;;;;;;5.78;4.65;;;19.20;65.00;;;;;;10567295;28;20039;-58
2021/05/31 08:44:08;;;;;;;9.23;4.97;;;19.20;65.00;;;;;;10548823;28;20070;-58
2021/05/31 08:49:09;;;;;;;7.20;4.57;;;19.20;65.00;;;;;;10567154;28;20027;-59
2021/05/31 08:54:10;;;;;;;7.88;4.70;;;19.20;65.00;;;;;;10546329;28;20241;-58
2021/05/31 08:59:10;;;;;;;9.77;5.25;;;19.20;64.90;;;;;;10555310;28;20038;-57
2021/05/31 09:04:15;;;;;;;6.68;4.38;;;19.20;64.90;;;;;;10541794;28;20103;-56
2021/05/31 09:09:16;;;;;;;6.13;4.70;;;19.20;64.80;;;;;;10541585;28;20417;-55
2021/05/31 09:14:22;;;;;;;5.55;3.83;;;19.20;64.70;;;;;;10555329;28;20055;-55
2021/05/31 09:19:22;;;;;;;4.82;3.75;;;19.20;64.70;;;;;;10565531;28;20023;-55
2021/05/31 09:24:24;;;;;;;6.50;3.97;;;19.20;65.30;;;;;;10583835;28;20032;-58
2021/05/31 09:29:25;;;;;;;5.35;4.38;;;19.20;64.70;;;;;;10583671;28;20840;-58
2021/05/31 09:34:26;;;;;;;6.38;4.57;;;19.20;64.60;;;;;;10581930;28;20035;-57
2021/05/31 09:39:40;;;;;;;7.20;4.05;;;19.20;64.60;;;;;;10490660;28;20955;-58
2021/05/31 09:44:42;;;;;;;6.85;4.53;;;19.20;64.60;;;;;;10449406;28;20163;-57
2021/05/31 09:49:43;;;;;;;5.05;4.00;;;19.20;64.60;;;;;;10449568;28;20112;-58
2021/05/31 09:54:51;;;;;;;4.50;3.72;;;19.30;64.60;;;;;;10448821;28;20032;-58
2021/05/31 10:00:03;;;;;;;4.75;3.60;;;19.30;64.60;;;;;;10449356;28;20102;-58
2021/05/31 10:10:07;;;;;;;5.50;3.78;;;19.30;64.70;;;;;;10448912;28;20049;-58
2021/05/31 10:15:11;;;;;;;5.95;4.35;;;19.30;64.60;;;;;;10450770;28;20096;-58
2021/05/31 10:20:12;;;;;;;6.18;3.90;;;19.30;64.60;;;;;;10449045;28;20033;-58
2021/05/31 10:25:15;;;;;;;6.22;4.20;;;19.40;64.60;;;;;;10448535;28;20047;-58
2021/05/31 10:30:17;;;;;;;4.82;3.80;;;19.40;64.60;;;;;;10448343;28;20044;-46
2021/05/31 10:35:26;;;;;;;3.97;3.42;;;19.40;64.60;;;;;;10447539;28;20034;-46
2021/05/31 10:40:36;;;;;;;5.25;3.72;;;19.40;64.60;;;;;;10447843;28;20037;-48
2021/05/31 10:45:38;;;;;;;5.55;4.13;;;19.40;64.60;;;;;;10447332;28;20025;-47
2021/05/31 10:50:58;;;;;;;5.70;4.15;;;19.50;64.70;;;;;;10420967;28;20033;-45
2021/05/31 10:56:24;;;;;;;9.43;4.53;;;19.40;64.70;;;;;;10419778;28;20036;-47
2021/05/31 11:01:35;;;;;;;10.75;4.13;;;19.50;64.40;;;;;;10419708;28;20032;-48
2021/05/31 11:06:38;;;;;;;11.13;4.45;;;19.50;63.70;;;;;;10417476;28;20033;-56
2021/05/31 11:11:42;;;;;;;12.52;4.90;;;19.60;63.50;;;;;;10420245;28;20482;-57
2021/05/31 11:17:01;;;;;;;11.32;5.70;;;19.60;62.80;;;;;;10418855;28;20374;-57
2021/05/31 11:22:16;;;;;;;13.73;5.57;;;19.70;63.20;;;;;;10417565;28;20033;-58
2021/05/31 11:27:21;;;;;;;13.07;5.22;;;19.70;62.90;;;;;;10418562;28;20029;-59
2021/05/31 11:32:22;;;;;;;10.38;5.90;;;19.70;62.60;;;;;;10418673;28;20034;-60
2021/05/31 11:37:24;;;;;;;8.70;5.55;;;19.70;62.00;;;;;;10417585;28;20045;-59
2021/05/31 11:42:26;;;;;;;10.95;6.00;;;19.70;61.80;;;;;;10417985;28;20088;-62
2021/05/31 11:47:30;;;;;;;7.63;5.88;;;19.70;61.70;;;;;;10416497;28;20025;-57
2021/05/31 11:52:31;;;;;;;11.20;7.30;;;19.70;61.50;;;;;;10417872;28;20037;-59
2021/05/31 11:57:32;;;;;;;10.13;6.18;;;19.70;62.00;;;;;;10413224;28;20025;-60
2021/05/31 12:02:39;;;;;;;9.55;5.13;;;19.70;61.20;;;;;;10407626;28;20382;-60
2021/05/31 12:07:45;;;;;;;12.82;6.88;;;19.70;61.30;;;;;;10417434;28;20033;-60
2021/05/31 12:12:49;;;;;;;8.63;5.60;;;19.70;61.40;;;;;;10418178;28;20025;-60
2021/05/31 12:17:52;;;;;;;9.07;6.28;;;19.70;61.50;;;;;;10416052;28;20445;-60
2021/05/31 12:22:53;;;;;;;6.50;4.78;;;19.80;61.60;;;;;;10415183;28;20067;-60
2021/05/31 12:27:54;;;;;;;6.97;5.25;;;19.80;61.80;;;;;;10416363;28;20429;-60
2021/05/31 12:32:55;;;;;;;6.90;5.25;;;19.80;61.80;;;;;;10415550;28;20124;-59
2021/05/31 12:37:56;;;;;;;6.75;5.38;;;19.80;61.80;;;;;;10415392;28;20045;-60
2021/05/31 12:42:57;;;;;;;10.15;5.53;;;19.90;61.70;;;;;;10416279;28;20052;-60
2021/05/31 12:47:57;;;;;;;5.47;4.80;;;19.90;61.80;;;;;;10414777;28;20396;-60
2021/05/31 12:53:08;;;;;;;7.63;5.53;;;19.90;61.70;;;;;;10414562;28;20502;-60
2021/05/31 12:58:21;;;;;;;6.20;5.18;;;19.90;61.80;;;;;;10405859;28;20033;-63
2021/05/31 13:03:22;;;;;;;8.57;5.35;;;19.90;61.70;;;;;;10412402;28;20049;-61
2021/05/31 13:08:23;;;;;;;8.27;5.40;;;19.90;61.50;;;;;;10404938;28;20049;-62
2021/05/31 13:13:38;;;;;;;9.07;5.28;;;19.90;61.40;;;;;;10403310;28;20397;-62
2021/05/31 13:18:43;;;;;;;7.45;5.55;;;19.90;61.30;;;;;;10406526;28;20052;-62
2021/05/31 13:23:46;;;;;;;7.22;5.63;;;19.90;61.30;;;;;;10406574;28;20029;-63
2021/05/31 13:28:53;;;;;;;9.70;5.82;;;19.90;61.30;;;;;;10404178;28;20065;-62
2021/05/31 13:33:55;;;;;;;7.55;5.53;;;19.90;61.30;;;;;;10406113;28;20041;-62
2021/05/31 13:39:18;;;;;;;6.88;5.00;;;19.90;61.00;;;;;;10406867;28;20057;-62
2021/05/31 13:44:21;;;;;;;7.65;5.25;;;19.90;60.80;;;;;;10402588;28;20115;-62
2021/05/31 13:49:23;;;;;;;8.63;5.53;;;20.00;60.90;;;;;;10405151;28;20783;-61
2021/05/31 13:54:24;;;;;;;6.82;5.10;;;20.00;60.70;;;;;;10405587;28;20033;-62
2021/05/31 13:59:25;;;;;;;6.55;5.43;;;20.00;60.80;;;;;;10406054;28;20036;-61
2021/05/31 14:04:26;;;;;;;6.97;4.55;;;19.90;60.70;;;;;;10406364;28;20041;-61
2021/05/31 14:09:27;;;;;;;7.40;5.43;;;19.90;60.50;;;;;;10404357;28;20487;-62
2021/05/31 14:14:27;;;;;;;6.07;5.32;;;20.00;60.50;;;;;;10404507;28;20045;-62
2021/05/31 14:19:28;;;;;;;6.65;5.10;;;20.00;60.50;;;;;;10405720;28;20105;-61
2021/05/31 14:24:29;;;;;;;6.68;5.25;;;20.00;60.20;;;;;;10409892;28;20041;-61
2021/05/31 14:29:30;;;;;;;5.68;5.10;;;20.00;60.20;;;;;;10412586;28;20051;-61
2021/05/31 14:34:31;;;;;;;6.22;4.68;;;20.00;60.20;;;;;;10412909;28;20119;-61
2021/05/31 14:39:32;;;;;;;6.53;5.30;;;20.00;59.90;;;;;;10411461;28;20613;-60
2021/05/31 14:44:32;;;;;;;4.85;4.40;;;20.00;60.00;;;;;;10412381;28;20025;-61
2021/05/31 14:49:33;;;;;;;6.60;4.88;;;20.00;59.90;;;;;;10412727;28;20094;-60
2021/05/31 14:54:34;;;;;;;6.50;5.20;;;20.00;59.70;;;;;;10412075;28;20040;-62
2021/05/31 14:59:35;;;;;;;7.03;4.78;;;20.00;59.70;;;;;;10404643;28;20505;-62
2021/05/31 15:04:35;;;;;;;6.72;4.07;;;20.00;59.50;;;;;;10411502;28;20029;-61
2021/05/31 15:09:36;;;;;;;6.30;4.32;;;20.10;60.00;;;;;;10410556;28;20441;-62
2021/05/31 15:14:39;;;;;;;5.90;4.15;;;20.00;59.20;;;;;;10410788;28;20055;-61
2021/05/31 15:19:40;;;;;;;5.53;4.43;;;20.00;59.00;;;;;;10411358;28;20133;-62
2021/05/31 15:24:43;;;;;;;6.05;5.03;;;20.00;58.90;;;;;;10411603;28;20132;-62
2021/05/31 15:29:44;;;;;;;6.45;4.47;;;20.10;58.60;;;;;;10410890;28;20033;-62
2021/05/31 15:34:45;;;;;;;6.10;4.38;;;20.10;58.80;;;;;;10410818;28;20061;-62
2021/05/31 15:39:46;;;;;;;5.18;4.00;;;20.10;58.50;;;;;;10407398;28;20049;-62
2021/05/31 15:44:47;;;;;;;5.80;4.35;;;20.00;58.40;;;;;;10416890;28;20108;-61
2021/05/31 15:49:48;;;;;;;8.73;4.18;;;20.10;58.40;;;;;;10418149;28;20371;-63
2021/05/31 15:54:48;;;;;;;8.18;5.20;;;20.00;57.10;;;;;;10417143;28;20049;-60
2021/05/31 15:59:49;;;;;;;6.35;4.00;;;20.10;54.90;;;;;;10417069;28;20533;-59
2021/05/31 16:04:53;;;;;;;9.63;5.25;;;20.10;57.10;;;;;;10415934;28;20489;-60
2021/05/31 16:09:53;;;;;;;7.35;5.53;;;20.10;53.50;;;;;;10416622;28;20521;-60
2021/05/31 16:14:55;;;;;;;11.30;8.13;;;20.10;52.40;;;;;;10426747;28;20104;-62
2021/05/31 16:19:56;;;;;;;10.45;6.80;;;20.10;52.80;;;;;;10416477;28;20056;-60
2021/05/31 16:30:17;;;;;;;7.97;6.00;;;20.10;52.60;;;;;;10416358;28;20029;-60
2021/05/31 16:35:19;;;;;;;8.15;5.60;;;20.10;52.60;;;;;;10415709;28;20516;-60
2021/05/31 16:40:20;;;;;;;6.03;4.90;;;20.10;52.90;;;;;;10416010;28;20049;-60
2021/05/31 16:45:21;;;;;;;9.85;5.43;;;20.20;53.00;;;;;;10425526;28;20068;-60
2021/05/31 16:50:22;;;;;;;8.52;5.82;;;20.20;52.80;;;;;;10414445;28;20029;-58
2021/05/31 16:55:23;;;;;;;9.43;5.13;;;20.20;52.90;;;;;;10414625;28;20183;-57
2021/05/31 17:00:26;;;;;;;7.28;5.22;;;20.20;53.00;;;;;;10415307;28;20025;-58
2021/05/31 17:05:29;;;;;;;6.45;4.97;;;20.20;53.10;;;;;;10414890;28;20443;-59
2021/05/31 17:15:56;;;;;;;6.57;4.78;;;20.20;52.30;;;;;;10415789;28;20536;-58
2021/05/31 17:20:57;;;;;;;7.50;4.90;;;20.20;52.70;;;;;;10414064;28;20434;-58
2021/05/31 17:25:59;;;;;;;8.43;4.65;;;20.20;52.40;;;;;;10414501;28;20042;-58
2021/05/31 17:31:23;;;;;;;6.72;5.55;;;20.20;52.10;;;;;;10412849;28;20026;-59
2021/05/31 17:36:23;;;;;;;7.65;4.45;;;20.20;51.90;;;;;;10413533;28;20041;-58
2021/05/31 17:41:24;;;;;;;8.82;4.40;;;20.20;51.70;;;;;;10412641;28;20021;-58
2021/05/31 17:46:25;;;;;;;5.85;3.97;;;20.20;50.80;;;;;;10413424;28;20441;-58
2021/05/31 17:51:25;;;;;;;6.65;4.60;;;20.20;50.20;;;;;;10413150;28;20063;-59
2021/05/31 17:56:26;;;;;;;8.85;4.53;;;20.20;49.70;;;;;;10405479;28;20390;-59
2021/05/31 18:01:27;;;;;;;6.82;4.28;;;20.20;48.50;;;;;;10406628;28;20030;-59
2021/05/31 18:06:28;;;;;;;5.63;3.95;;;20.20;47.90;;;;;;10420248;28;20189;-58
2021/05/31 18:11:29;;;;;;;4.15;3.38;;;20.30;47.70;;;;;;10421698;28;20029;-59
2021/05/31 18:16:29;;;;;;;6.63;4.00;;;20.30;46.00;;;;;;10421545;28;20167;-58
2021/05/31 18:21:30;;;;;;;12.98;4.55;;;20.30;46.70;;;;;;10420228;28;20059;-58
2021/05/31 18:26:36;;;;;;;7.47;3.65;;;20.40;49.50;;;;;;10411154;28;20183;-58
2021/05/31 18:31:39;;;;;;;7.70;4.30;;;20.40;48.10;;;;;;10415977;28;20033;-58
2021/05/31 18:36:44;;;;;;;11.50;4.30;;;20.40;48.10;;;;;;10417938;28;20041;-58
2021/05/31 18:41:45;;;;;;;7.53;3.47;;;20.40;47.20;;;;;;10418549;28;20434;-58
2021/05/31 18:46:47;;;;;;;5.53;3.17;;;20.30;47.60;;;;;;10425997;28;20041;-58
2021/05/31 18:51:48;;;;;;;5.63;3.60;;;20.30;47.70;;;;;;10419053;28;20033;-58
2021/05/31 18:56:49;;;;;;;4.60;3.50;;;20.30;50.30;;;;;;10418589;28;20029;-59
2021/05/31 19:01:50;;;;;;;4.68;3.08;;;20.20;49.50;;;;;;10402345;28;20038;-58
2021/05/31 19:06:51;;;;;;;5.97;3.33;;;20.20;50.90;;;;;;10419504;28;20061;-59
2021/05/31 19:11:52;;;;;;;4.88;3.72;;;20.20;51.30;;;;;;10420683;28;20025;-59
2021/05/31 19:16:53;;;;;;;5.43;2.80;;;20.20;51.60;;;;;;10419428;28;20036;-59
2021/05/31 19:21:53;;;;;;;6.18;3.03;;;20.20;51.90;;;;;;10417655;28;20116;-59
2021/05/31 19:26:54;;;;;;;4.85;3.17;;;20.20;52.10;;;;;;10419024;28;20115;-58
2021/05/31 19:31:55;;;;;;;6.70;3.00;;;20.20;51.30;;;;;;10418171;28;20072;-60
2021/05/31 19:36:56;;;;;;;7.05;3.17;;;20.10;50.90;;;;;;10416834;28;20382;-60
2021/05/31 19:41:57;;;;;;;5.25;3.05;;;20.10;51.60;;;;;;10417218;28;20029;-59
2021/05/31 19:46:58;;;;;;;5.90;3.47;;;20.10;51.30;;;;;;10418115;28;20485;-61
2021/05/31 19:52:00;;;;;;;5.68;2.85;;;20.10;51.20;;;;;;10415307;28;20116;-59
2021/05/31 19:57:14;;;;;;;5.80;3.22;;;20.10;51.80;;;;;;10416153;28;20095;-59
2021/05/31 20:02:20;;;;;;;6.93;3.22;;;20.20;51.70;;;;;;10414999;28;20033;-58
2021/05/31 20:07:28;;;;;;;6.88;2.95;;;20.10;51.70;;;;;;10415477;28;20047;-59
2021/05/31 20:12:30;;;;;;;3.38;2.80;;;20.10;51.60;;;;;;10415909;28;20398;-59
2021/05/31 20:17:31;;;;;;;5.45;3.25;;;20.10;51.90;;;;;;10416178;28;20528;-59
2021/05/31 20:22:32;;;;;;;3.80;2.92;;;20.10;52.70;;;;;;10414809;28;20025;-59
2021/05/31 20:27:32;;;;;;;8.43;3.90;;;20.10;52.20;;;;;;10415696;28;20038;-58
2021/05/31 20:32:33;;;;;;;5.38;2.65;;;20.10;52.20;;;;;;10415613;28;20045;-59
2021/05/31 20:37:34;;;;;;;5.57;2.97;;;20.10;52.40;;;;;;10414995;28;20030;-58
2021/05/31 20:42:35;;;;;;;3.38;2.47;;;20.10;52.70;;;;;;10414884;28;20028;-59
2021/05/31 20:47:37;;;;;;;7.38;2.80;;;20.10;52.90;;;;;;10413324;28;20036;-58
2021/05/31 20:52:39;;;;;;;5.55;2.97;;;20.10;53.00;;;;;;10415594;28;20060;-59
2021/05/31 20:57:41;;;;;;;6.60;3.17;;;20.10;53.20;;;;;;10415616;28;20120;-58
2021/05/31 21:02:42;;;;;;;7.13;2.85;;;20.10;53.30;;;;;;10415247;28;20090;-59
2021/05/31 21:08:03;;;;;;;3.78;2.70;;;20.00;53.40;;;;;;10414890;28;20037;-59
2021/05/31 21:13:08;;;;;;;4.53;2.50;;;20.10;53.70;;;;;;10424023;28;20045;-58
2021/05/31 21:18:10;;;;;;;5.25;2.70;;;20.00;53.70;;;;;;10429626;28;20026;-58
2021/05/31 21:23:34;;;;;;;4.68;2.65;;;20.10;53.90;;;;;;10413611;28;20575;-58
2021/05/31 21:28:37;;;;;;;4.35;3.30;;;20.00;53.90;;;;;;10413238;28;20041;-59
2021/05/31 21:33:42;;;;;;;5.43;2.70;;;20.00;54.10;;;;;;10412885;28;20036;-59
2021/05/31 21:38:44;;;;;;;5.32;2.25;;;20.00;54.20;;;;;;10413801;28;20505;-58
2021/05/31 21:43:45;;;;;;;4.30;2.85;;;20.00;54.40;;;;;;10414402;28;20029;-58
2021/05/31 21:48:45;;;;;;;3.88;2.22;;;20.00;54.40;;;;;;10413815;28;20534;-58
2021/05/31 21:53:46;;;;;;;3.53;2.63;;;20.00;54.50;;;;;;10413557;28;20111;-58
2021/05/31 21:58:47;;;;;;;3.95;2.53;;;20.00;54.60;;;;;;10413814;28;20493;-58
2021/05/31 22:03:48;;;;;;;3.78;2.47;;;20.00;54.70;;;;;;10413380;28;20056;-58
2021/05/31 22:08:48;;;;;;;4.47;2.38;;;20.00;54.80;;;;;;10413704;28;20432;-59
2021/05/31 22:14:09;;;;;;;3.60;2.20;;;20.00;54.90;;;;;;10421231;28;20115;-58
2021/05/31 22:19:09;;;;;;;3.50;2.65;;;20.00;54.90;;;;;;10413495;28;20038;-58
2021/05/31 22:24:10;;;;;;;3.00;2.33;;;20.00;55.00;;;;;;10413085;28;20112;-58
2021/05/31 22:34:30;;;;;;;4.00;2.53;;;20.00;55.10;;;;;;10412993;28;20046;-58
2021/05/31 22:39:33;;;;;;;4.25;2.40;;;20.00;55.00;;;;;;10411611;28;20518;-59
2021/05/31 22:45:08;;;;;;;3.50;2.35;;;19.90;55.10;;;;;;10416637;28;20041;-58
2021/05/31 23:16:45;;;;;;;4.50;3.08;;;19.90;55.90;;;;;;10411458;28;20068;-58
2021/05/31 23:21:46;;;;;;;4.35;2.85;;;19.90;55.90;;;;;;10419150;28;20049;-58
2021/05/31 23:26:47;;;;;;;4.00;2.85;;;19.90;56.00;;;;;;10419208;28;20041;-58
2021/05/31 23:31:48;;;;;;;4.07;2.65;;;19.90;56.00;;;;;;10417481;28;20109;-59
2021/05/31 23:36:50;;;;;;;3.85;2.45;;;19.90;56.00;;;;;;10418084;28;20084;-59
2021/05/31 23:41:51;;;;;;;5.10;3.15;;;19.90;56.00;;;;;;10417657;28;20029;-59
2021/05/31 23:46:52;;;;;;;3.92;3.10;;;19.90;56.10;;;;;;10418188;28;20041;-59
2021/05/31 23:51:52;;;;;;;5.65;2.30;;;19.90;56.10;;;;;;10416702;28;20034;-59
2021/05/31 23:56:53;;;;;;;4.28;2.40;;;19.90;56.10;;;;;;10417761;28;20513;-58
